createdAt,value
2022-10-18T04:16:56.013Z,8.72
2022-10-18T04:47:11.123Z,8.53
2022-10-18T06:28:12.190Z,9.80
2022-10-18T06:31:05.703Z,9.88
2022-10-18T06:49:39.149Z,10.45
2022-10-18T06:58:13.920Z,10.73
2022-10-18T07:00:06.297Z,10.89
2022-10-18T07:06:53.883Z,11.21
2022-10-18T07:09:20.624Z,11.33
2022-10-18T07:11:49.555Z,11.42
2022-10-18T07:14:45.048Z,11.53
2022-10-18T07:26:52.398Z,12.03
2022-10-18T08:55:36.925Z,15.44
2022-10-18T09:08:18.043Z,15.80
2022-10-18T11:11:44.917Z,18.32
2022-10-18T11:15:31.662Z,18.31
2022-10-18T11:33:06.742Z,18.58
2022-10-18T11:54:36.042Z,19.10
2022-10-18T12:43:23.371Z,19.24
2022-10-18T16:46:34.223Z,14.50
2022-10-18T16:50:15.917Z,14.46
2022-10-18T16:52:40.024Z,14.35
2022-10-18T16:55:17.352Z,14.21
2022-10-18T17:02:20.616Z,14.07
2022-10-18T17:02:40.487Z,13.86
2022-10-18T17:05:14.637Z,13.72
2022-10-18T17:07:59.600Z,13.62
2022-10-18T17:16:00.724Z,13.39
2022-10-18T18:05:29.243Z,11.97
2022-10-18T18:07:04.363Z,11.91
2022-10-18T18:09:31.754Z,11.87
2022-10-18T18:12:01.503Z,11.81
2022-10-18T18:14:28.673Z,11.75
2022-10-18T18:17:03.177Z,11.68
2022-10-18T18:19:31.761Z,11.60
2022-10-18T18:22:04.982Z,11.54
2022-10-18T18:28:10.316Z,11.33
2022-10-18T18:34:29.235Z,11.10
2022-10-18T18:37:15.130Z,11.03
2022-10-18T18:39:49.485Z,10.95
2022-10-18T18:42:31.723Z,10.88
2022-10-18T18:48:04.442Z,10.79
2022-10-18T18:50:31.397Z,10.75
2022-10-18T18:56:15.077Z,10.67
2022-10-18T18:59:10.426Z,10.61
2022-10-18T19:01:48.894Z,10.54
2022-10-18T19:04:29.317Z,10.50
2022-10-18T19:06:57.896Z,10.45
2022-10-18T19:09:29.679Z,10.41
2022-10-18T19:14:45.477Z,10.32
2022-10-18T19:17:23.159Z,10.30
2022-10-18T19:20:02.846Z,10.27
2022-10-18T19:22:34.030Z,10.24
2022-10-18T19:25:01.326Z,10.22
2022-10-18T19:27:28.751Z,10.19
2022-10-18T19:29:57.333Z,10.17
2022-10-18T19:32:40.738Z,10.14
2022-10-18T19:35:23.706Z,10.10
2022-10-18T19:38:19.253Z,10.08
2022-10-18T19:40:59.867Z,10.05
2022-10-18T19:45:11.980Z,10.03
2022-10-18T19:47:40.713Z,10.00
2022-10-18T19:51:10.948Z,9.98
2022-10-18T19:54:15.182Z,9.94
2022-10-18T19:56:45.479Z,9.91
2022-10-18T19:59:14.475Z,9.88
2022-10-18T20:01:42.501Z,9.85
2022-10-18T20:04:16.234Z,9.84
2022-10-18T20:07:00.091Z,9.80
2022-10-18T20:09:27.278Z,9.75
2022-10-18T20:12:03.250Z,9.72
2022-10-18T20:14:33.226Z,9.69
2022-10-18T20:17:01.508Z,9.67
2022-10-18T20:19:38.659Z,9.66
2022-10-18T20:22:06.813Z,9.66
2022-10-18T20:24:33.648Z,9.65
2022-10-18T20:27:03.359Z,9.65
2022-10-18T20:29:41.006Z,9.65
2022-10-18T20:32:14.133Z,9.62
2022-10-18T20:34:40.882Z,9.60
2022-10-18T20:37:07.657Z,9.56
2022-10-18T20:39:34.755Z,9.53
2022-10-18T20:42:03.034Z,9.49
2022-10-18T20:44:33.577Z,9.47
2022-10-18T20:47:17.267Z,9.45
2022-10-18T20:49:48.305Z,9.43
2022-10-18T20:52:30.496Z,9.40
2022-10-18T20:55:20.282Z,9.38
2022-10-18T20:58:01.624Z,9.35
2022-10-18T21:00:28.216Z,9.33
2022-10-18T21:02:58.160Z,9.31
2022-10-18T21:05:33.127Z,9.30
2022-10-18T21:08:06.207Z,9.28
2022-10-18T21:10:37.262Z,9.26
2022-10-18T21:13:16.592Z,9.25
2022-10-18T21:15:57.353Z,9.27
2022-10-18T21:18:34.786Z,9.29
2022-10-18T21:21:10.683Z,9.30
2022-10-18T21:23:45.388Z,9.29
2022-10-18T21:26:23.634Z,9.27
2022-10-18T21:28:57.901Z,9.25
2022-10-18T21:31:28.812Z,9.23
2022-10-18T21:34:02.080Z,9.21
2022-10-18T21:36:35.086Z,9.20
2022-10-18T21:39:16.288Z,9.18
2022-10-18T21:41:45.018Z,9.15
2022-10-18T21:44:15.325Z,9.13
2022-10-18T21:49:34.473Z,9.08
2022-10-18T21:52:06.229Z,9.07
2022-10-18T21:54:35.900Z,9.06
2022-10-18T21:57:02.860Z,9.05
2022-10-18T21:59:30.692Z,9.04
2022-10-18T22:02:25.353Z,9.03
2022-10-18T22:04:56.898Z,9.02
2022-10-18T22:07:28.051Z,9.00
2022-10-18T22:09:57.108Z,8.98
2022-10-18T22:12:26.575Z,8.98
2022-10-18T22:14:55.627Z,8.97
2022-10-18T22:17:31.958Z,8.96
2022-10-18T22:20:06.308Z,8.95
2022-10-18T22:22:50.779Z,8.93
2022-10-18T22:25:35.854Z,8.92
2022-10-18T22:28:38.046Z,8.90
2022-10-18T22:31:21.749Z,8.89
2022-10-18T22:34:06.075Z,8.88
2022-10-18T22:36:40.224Z,8.86
2022-10-18T22:39:13.896Z,8.86
2022-10-18T22:41:46.784Z,8.85
2022-10-18T22:44:32.186Z,8.84
2022-10-18T22:47:03.307Z,8.81
2022-10-18T22:49:49.409Z,8.78
2022-10-18T22:52:34.051Z,8.75
2022-10-18T22:55:51.949Z,8.71
2022-10-18T23:06:56.609Z,8.59
2022-10-18T23:12:21.387Z,8.56
2022-10-18T23:14:48.553Z,8.56
2022-10-18T23:17:35.364Z,8.56
2022-10-18T23:20:12.206Z,8.54
2022-10-18T23:23:00.579Z,8.53
2022-10-18T23:26:09.525Z,8.50
2022-10-18T23:28:49.546Z,8.47
2022-10-18T23:34:27.098Z,8.44
2022-10-18T23:37:20.372Z,8.43
2022-10-18T23:40:11.175Z,8.41
2022-10-18T23:43:22.955Z,8.39
2022-10-18T23:45:57.487Z,8.38
2022-10-18T23:48:27.715Z,8.38
2022-10-18T23:51:14.953Z,8.37
2022-10-18T23:54:05.508Z,8.35
2022-10-18T23:56:37.150Z,8.33
2022-10-18T23:59:16.559Z,8.32
